Terminal Aerodrome Forecast
Issued by NWS Cleveland, OH

Home | Current Version | Previous Version | Graphics & Text | Print | Product List | Glossary On
Versions: 1 2 3 4 5 6 7 8 9 10 11 12 13 14 15 16 17 18 19 20 21 22 23 24
000
FTUS41 KCLE 261100 CCA
TAFMFD
TAF COR
KMFD 261157Z 2612/2712 20010KT P6SM SCT018 BKN030
     FM261700 19012G20KT P6SM BKN040
     FM262300 18015G25KT 6SM -SHRA VCTS BKN040CB OVC080
     FM270200 19015G22KT P6SM VCSH BKN040 OVC100
     FM270800 20012KT 5SM BR BKN008=

USA.gov is the U.S. government's official web portal to all federal, state and local government web resources and services.